sensor_id;sensor_type;location;lat;lon;timestamp;pressure;altitude;pressure_sealevel;temperature;humidity
64228;BME280;50546;49.146;10.616;2022-08-23T00:01:49;96330.28;;;17.24;63.16
64228;BME280;50546;49.146;10.616;2022-08-23T00:04:18;96332.06;;;17.17;63.53
64228;BME280;50546;49.146;10.616;2022-08-23T00:06:46;96328.84;;;17.11;63.80
64228;BME280;50546;49.146;10.616;2022-08-23T00:09:12;96335.34;;;17.06;63.84
64228;BME280;50546;49.146;10.616;2022-08-23T00:11:44;96335.06;;;16.92;64.75
64228;BME280;50546;49.146;10.616;2022-08-23T00:14:16;96335.69;;;16.86;64.71
64228;BME280;50546;49.146;10.616;2022-08-23T00:16:42;96332.38;;;16.76;65.30
64228;BME280;50546;49.146;10.616;2022-08-23T00:19:10;96334.03;;;16.81;64.42
64228;BME280;50546;49.146;10.616;2022-08-23T00:21:38;96327.16;;;16.87;64.48
64228;BME280;50546;49.146;10.616;2022-08-23T00:24:06;96326.69;;;17.01;63.78
64228;BME280;50546;49.146;10.616;2022-08-23T00:26:55;96326.31;;;17.02;64.46
64228;BME280;50546;49.146;10.616;2022-08-23T00:29:26;96328.16;;;16.79;65.40
64228;BME280;50546;49.146;10.616;2022-08-23T00:31:52;96323.50;;;16.79;65.57
64228;BME280;50546;49.146;10.616;2022-08-23T00:34:18;96327.72;;;16.77;65.74
64228;BME280;50546;49.146;10.616;2022-08-23T00:36:43;96335.63;;;16.82;65.12
64228;BME280;50546;49.146;10.616;2022-08-23T00:39:12;96330.59;;;16.84;65.04
64228;BME280;50546;49.146;10.616;2022-08-23T00:41:38;96329.72;;;16.96;64.55
64228;BME280;50546;49.146;10.616;2022-08-23T00:44:04;96324.75;;;17.01;64.37
64228;BME280;50546;49.146;10.616;2022-08-23T00:46:52;96323.59;;;17.02;64.38
64228;BME280;50546;49.146;10.616;2022-08-23T00:49:53;96328.19;;;16.98;64.81
64228;BME280;50546;49.146;10.616;2022-08-23T00:52:41;96328.09;;;16.75;65.74
64228;BME280;50546;49.146;10.616;2022-08-23T00:55:10;96321.44;;;16.57;66.14
64228;BME280;50546;49.146;10.616;2022-08-23T00:57:35;96322.16;;;16.73;66.04
64228;BME280;50546;49.146;10.616;2022-08-23T01:00:04;96319.78;;;16.88;65.26
64228;BME280;50546;49.146;10.616;2022-08-23T01:02:30;96322.31;;;16.96;64.92
64228;BME280;50546;49.146;10.616;2022-08-23T01:04:57;96328.41;;;17.09;64.69
64228;BME280;50546;49.146;10.616;2022-08-23T01:09:53;96337.25;;;17.22;64.16
64228;BME280;50546;49.146;10.616;2022-08-23T01:12:25;96327.41;;;17.17;64.20
64228;BME280;50546;49.146;10.616;2022-08-23T01:15:05;96335.50;;;16.94;65.19
64228;BME280;50546;49.146;10.616;2022-08-23T01:17:46;96336.16;;;16.72;65.32
64228;BME280;50546;49.146;10.616;2022-08-23T01:20:18;96334.25;;;16.56;65.96
64228;BME280;50546;49.146;10.616;2022-08-23T01:25:35;96346.69;;;16.57;65.88
64228;BME280;50546;49.146;10.616;2022-08-23T01:28:01;96344.09;;;16.45;66.19
64228;BME280;50546;49.146;10.616;2022-08-23T01:30:29;96345.31;;;16.32;66.14
64228;BME280;50546;49.146;10.616;2022-08-23T01:32:58;96342.69;;;16.35;66.53
64228;BME280;50546;49.146;10.616;2022-08-23T01:35:33;96336.88;;;16.37;66.97
64228;BME280;50546;49.146;10.616;2022-08-23T01:37:59;96339.59;;;16.37;67.24
64228;BME280;50546;49.146;10.616;2022-08-23T01:40:26;96334.44;;;16.32;67.32
64228;BME280;50546;49.146;10.616;2022-08-23T01:42:51;96339.97;;;16.04;68.24
64228;BME280;50546;49.146;10.616;2022-08-23T01:45:17;96342.19;;;15.98;68.45
64228;BME280;50546;49.146;10.616;2022-08-23T01:47:42;96336.56;;;15.91;68.69
64228;BME280;50546;49.146;10.616;2022-08-23T01:50:09;96339.47;;;15.98;68.42
64228;BME280;50546;49.146;10.616;2022-08-23T01:52:36;96329.28;;;16.11;68.21
64228;BME280;50546;49.146;10.616;2022-08-23T01:55:03;96339.63;;;16.21;67.11
64228;BME280;50546;49.146;10.616;2022-08-23T01:57:29;96336.03;;;16.33;67.03
64228;BME280;50546;49.146;10.616;2022-08-23T01:59:56;96336.03;;;16.33;67.56
64228;BME280;50546;49.146;10.616;2022-08-23T02:02:21;96338.22;;;16.11;67.22
64228;BME280;50546;49.146;10.616;2022-08-23T02:04:47;96344.09;;;15.98;67.11
64228;BME280;50546;49.146;10.616;2022-08-23T02:07:12;96335.69;;;15.87;67.92
64228;BME280;50546;49.146;10.616;2022-08-23T02:09:37;96336.09;;;15.89;67.22
64228;BME280;50546;49.146;10.616;2022-08-23T02:12:03;96343.19;;;15.50;69.71
64228;BME280;50546;49.146;10.616;2022-08-23T02:14:28;96337.06;;;15.53;69.09
64228;BME280;50546;49.146;10.616;2022-08-23T02:16:55;96334.25;;;15.49;69.44
64228;BME280;50546;49.146;10.616;2022-08-23T02:19:20;96339.47;;;15.54;69.36
64228;BME280;50546;49.146;10.616;2022-08-23T02:21:46;96342.50;;;15.53;69.09
64228;BME280;50546;49.146;10.616;2022-08-23T02:24:14;96340.84;;;15.48;69.48
64228;BME280;50546;49.146;10.616;2022-08-23T02:26:44;96341.13;;;15.31;69.46
64228;BME280;50546;49.146;10.616;2022-08-23T02:29:10;96343.31;;;15.25;70.54
64228;BME280;50546;49.146;10.616;2022-08-23T02:31:35;96346.31;;;15.36;70.08
64228;BME280;50546;49.146;10.616;2022-08-23T02:34:02;96348.44;;;15.43;69.41
64228;BME280;50546;49.146;10.616;2022-08-23T02:36:27;96347.84;;;15.49;68.83
64228;BME280;50546;49.146;10.616;2022-08-23T02:38:54;96345.03;;;15.46;69.55
64228;BME280;50546;49.146;10.616;2022-08-23T02:41:19;96345.88;;;15.62;68.59
64228;BME280;50546;49.146;10.616;2022-08-23T02:43:45;96346.88;;;15.70;68.12
64228;BME280;50546;49.146;10.616;2022-08-23T02:46:10;96350.00;;;15.72;68.24
64228;BME280;50546;49.146;10.616;2022-08-23T02:48:36;96350.78;;;15.72;69.16
64228;BME280;50546;49.146;10.616;2022-08-23T02:51:05;96348.72;;;15.81;68.67
64228;BME280;50546;49.146;10.616;2022-08-23T02:53:31;96358.53;;;15.86;68.25
64228;BME280;50546;49.146;10.616;2022-08-23T02:55:58;96356.94;;;15.69;68.93
64228;BME280;50546;49.146;10.616;2022-08-23T02:58:24;96363.31;;;15.33;69.88
64228;BME280;50546;49.146;10.616;2022-08-23T03:00:50;96360.88;;;15.15;70.27
64228;BME280;50546;49.146;10.616;2022-08-23T03:03:16;96351.69;;;15.20;69.98
64228;BME280;50546;49.146;10.616;2022-08-23T03:05:42;96354.78;;;15.06;70.04
64228;BME280;50546;49.146;10.616;2022-08-23T03:08:08;96353.34;;;15.25;69.81
64228;BME280;50546;49.146;10.616;2022-08-23T03:10:34;96356.94;;;15.41;69.99
64228;BME280;50546;49.146;10.616;2022-08-23T03:13:00;96351.94;;;15.43;68.74
64228;BME280;50546;49.146;10.616;2022-08-23T03:15:26;96352.66;;;15.28;68.71
64228;BME280;50546;49.146;10.616;2022-08-23T03:17:52;96354.56;;;14.99;70.49
64228;BME280;50546;49.146;10.616;2022-08-23T03:20:17;96357.84;;;15.05;69.49
64228;BME280;50546;49.146;10.616;2022-08-23T03:22:42;96360.69;;;14.96;70.58
64228;BME280;50546;49.146;10.616;2022-08-23T03:25:08;96352.25;;;14.73;70.81
64228;BME280;50546;49.146;10.616;2022-08-23T03:27:34;96351.72;;;14.67;71.69
64228;BME280;50546;49.146;10.616;2022-08-23T03:29:59;96351.59;;;14.64;72.23
64228;BME280;50546;49.146;10.616;2022-08-23T03:32:25;96349.44;;;14.57;72.76
64228;BME280;50546;49.146;10.616;2022-08-23T03:34:51;96345.59;;;14.71;72.01
64228;BME280;50546;49.146;10.616;2022-08-23T03:37:17;96346.94;;;14.77;71.92
64228;BME280;50546;49.146;10.616;2022-08-23T03:39:42;96350.31;;;14.86;72.08
64228;BME280;50546;49.146;10.616;2022-08-23T03:42:07;96352.88;;;14.95;71.49
64228;BME280;50546;49.146;10.616;2022-08-23T03:44:33;96348.13;;;15.04;71.34
64228;BME280;50546;49.146;10.616;2022-08-23T03:46:58;96347.72;;;15.17;70.83
64228;BME280;50546;49.146;10.616;2022-08-23T03:49:24;96353.41;;;15.12;71.58
64228;BME280;50546;49.146;10.616;2022-08-23T03:51:49;96355.03;;;15.01;70.43
64228;BME280;50546;49.146;10.616;2022-08-23T03:54:15;96350.22;;;14.82;70.67
64228;BME280;50546;49.146;10.616;2022-08-23T03:56:55;96346.06;;;14.60;71.07
64228;BME280;50546;49.146;10.616;2022-08-23T03:59:23;96355.63;;;14.70;70.43
64228;BME280;50546;49.146;10.616;2022-08-23T04:01:49;96352.28;;;14.61;71.49
64228;BME280;50546;49.146;10.616;2022-08-23T04:04:14;96364.00;;;14.65;71.78
64228;BME280;50546;49.146;10.616;2022-08-23T04:06:39;96365.25;;;14.55;71.54
64228;BME280;50546;49.146;10.616;2022-08-23T04:09:05;96364.16;;;14.56;70.71
64228;BME280;50546;49.146;10.616;2022-08-23T04:11:30;96356.63;;;14.41;72.16
64228;BME280;50546;49.146;10.616;2022-08-23T04:13:56;96365.91;;;14.28;71.70
64228;BME280;50546;49.146;10.616;2022-08-23T04:16:21;96357.78;;;14.28;72.04
64228;BME280;50546;49.146;10.616;2022-08-23T04:18:47;96365.13;;;14.27;72.14
64228;BME280;50546;49.146;10.616;2022-08-23T04:21:16;96354.19;;;14.24;72.37
64228;BME280;50546;49.146;10.616;2022-08-23T04:23:42;96361.06;;;14.21;72.43
64228;BME280;50546;49.146;10.616;2022-08-23T04:26:08;96373.34;;;14.06;73.40
64228;BME280;50546;49.146;10.616;2022-08-23T04:28:33;96378.28;;;14.04;72.88
64228;BME280;50546;49.146;10.616;2022-08-23T04:31:00;96374.00;;;14.03;73.13
64228;BME280;50546;49.146;10.616;2022-08-23T04:33:26;96385.53;;;14.12;73.30
64228;BME280;50546;49.146;10.616;2022-08-23T04:35:51;96391.06;;;14.16;72.61
64228;BME280;50546;49.146;10.616;2022-08-23T04:38:17;96386.91;;;14.18;72.15
64228;BME280;50546;49.146;10.616;2022-08-23T04:40:42;96389.78;;;14.01;73.70
64228;BME280;50546;49.146;10.616;2022-08-23T04:43:26;96383.94;;;13.99;73.55
64228;BME280;50546;49.146;10.616;2022-08-23T04:45:52;96382.59;;;14.05;74.16
64228;BME280;50546;49.146;10.616;2022-08-23T04:48:17;96381.47;;;14.06;73.30
64228;BME280;50546;49.146;10.616;2022-08-23T04:50:42;96379.91;;;14.05;73.67
64228;BME280;50546;49.146;10.616;2022-08-23T04:53:08;96391.66;;;14.21;73.21
64228;BME280;50546;49.146;10.616;2022-08-23T04:55:33;96390.50;;;14.10;73.32
64228;BME280;50546;49.146;10.616;2022-08-23T04:57:58;96387.78;;;14.10;73.20
64228;BME280;50546;49.146;10.616;2022-08-23T05:00:24;96395.03;;;14.18;73.38
64228;BME280;50546;49.146;10.616;2022-08-23T05:02:49;96398.44;;;14.28;73.21
64228;BME280;50546;49.146;10.616;2022-08-23T05:05:15;96401.59;;;14.30;72.42
64228;BME280;50546;49.146;10.616;2022-08-23T05:07:41;96410.41;;;14.39;71.67
64228;BME280;50546;49.146;10.616;2022-08-23T05:10:10;96413.56;;;14.41;72.38
64228;BME280;50546;49.146;10.616;2022-08-23T05:12:36;96421.25;;;14.39;72.51
64228;BME280;50546;49.146;10.616;2022-08-23T05:15:03;96413.31;;;14.34;72.47
64228;BME280;50546;49.146;10.616;2022-08-23T05:17:28;96422.94;;;14.43;72.23
64228;BME280;50546;49.146;10.616;2022-08-23T05:19:53;96423.56;;;14.61;71.63
64228;BME280;50546;49.146;10.616;2022-08-23T05:22:18;96419.47;;;14.80;71.30
64228;BME280;50546;49.146;10.616;2022-08-23T05:24:44;96424.44;;;14.90;71.84
64228;BME280;50546;49.146;10.616;2022-08-23T05:27:10;96427.06;;;14.86;71.19
64228;BME280;50546;49.146;10.616;2022-08-23T05:29:35;96430.34;;;14.80;71.25
64228;BME280;50546;49.146;10.616;2022-08-23T05:32:00;96436.91;;;14.79;71.98
64228;BME280;50546;49.146;10.616;2022-08-23T05:34:26;96430.19;;;14.88;72.44
64228;BME280;50546;49.146;10.616;2022-08-23T05:36:52;96436.09;;;14.90;71.61
64228;BME280;50546;49.146;10.616;2022-08-23T05:39:18;96431.91;;;14.93;71.93
64228;BME280;50546;49.146;10.616;2022-08-23T05:41:43;96426.47;;;15.05;71.10
64228;BME280;50546;49.146;10.616;2022-08-23T05:44:09;96438.09;;;15.06;71.94
64228;BME280;50546;49.146;10.616;2022-08-23T05:46:36;96447.03;;;15.06;72.23
64228;BME280;50546;49.146;10.616;2022-08-23T05:49:01;96441.28;;;15.08;72.20
64228;BME280;50546;49.146;10.616;2022-08-23T05:51:30;96447.56;;;15.24;71.47
64228;BME280;50546;49.146;10.616;2022-08-23T05:54:01;96443.03;;;15.28;71.57
64228;BME280;50546;49.146;10.616;2022-08-23T05:56:28;96448.97;;;15.46;70.71
64228;BME280;50546;49.146;10.616;2022-08-23T05:58:56;96460.16;;;15.69;70.01
64228;BME280;50546;49.146;10.616;2022-08-23T06:01:22;96457.03;;;15.83;69.15
64228;BME280;50546;49.146;10.616;2022-08-23T06:03:48;96450.19;;;16.01;69.05
64228;BME280;50546;49.146;10.616;2022-08-23T06:06:14;96446.25;;;16.15;68.84
64228;BME280;50546;49.146;10.616;2022-08-23T06:08:41;96441.00;;;16.37;68.18
64228;BME280;50546;49.146;10.616;2022-08-23T06:11:10;96446.72;;;16.48;68.44
64228;BME280;50546;49.146;10.616;2022-08-23T06:13:40;96448.13;;;16.42;68.83
64228;BME280;50546;49.146;10.616;2022-08-23T06:16:07;96444.25;;;16.43;68.05
64228;BME280;50546;49.146;10.616;2022-08-23T06:18:32;96440.66;;;16.55;68.29
64228;BME280;50546;49.146;10.616;2022-08-23T06:21:11;96446.97;;;16.59;68.27
64228;BME280;50546;49.146;10.616;2022-08-23T06:23:38;96447.25;;;16.70;67.73
64228;BME280;50546;49.146;10.616;2022-08-23T06:26:15;96446.75;;;16.80;67.84
64228;BME280;50546;49.146;10.616;2022-08-23T06:28:43;96450.41;;;16.88;67.90
64228;BME280;50546;49.146;10.616;2022-08-23T06:31:09;96453.59;;;16.90;68.20
64228;BME280;50546;49.146;10.616;2022-08-23T06:33:35;96466.41;;;16.89;68.46
64228;BME280;50546;49.146;10.616;2022-08-23T06:36:08;96471.16;;;16.92;69.18
64228;BME280;50546;49.146;10.616;2022-08-23T06:38:34;96463.66;;;17.05;68.83
64228;BME280;50546;49.146;10.616;2022-08-23T06:41:04;96463.50;;;16.98;69.17
64228;BME280;50546;49.146;10.616;2022-08-23T06:43:31;96467.78;;;17.15;69.28
64228;BME280;50546;49.146;10.616;2022-08-23T06:46:14;96470.91;;;17.17;69.39
64228;BME280;50546;49.146;10.616;2022-08-23T06:48:42;96478.00;;;17.37;68.53
64228;BME280;50546;49.146;10.616;2022-08-23T06:51:28;96473.56;;;17.48;68.47
64228;BME280;50546;49.146;10.616;2022-08-23T06:53:56;96470.69;;;17.61;68.38
64228;BME280;50546;49.146;10.616;2022-08-23T06:56:23;96468.81;;;17.80;67.81
64228;BME280;50546;49.146;10.616;2022-08-23T06:58:50;96462.28;;;17.85;67.24
64228;BME280;50546;49.146;10.616;2022-08-23T07:03:43;96468.22;;;18.10;67.23
64228;BME280;50546;49.146;10.616;2022-08-23T07:06:09;96473.44;;;18.19;66.85
64228;BME280;50546;49.146;10.616;2022-08-23T07:08:34;96475.00;;;18.39;66.55
64228;BME280;50546;49.146;10.616;2022-08-23T07:10:59;96474.81;;;18.51;66.07
64228;BME280;50546;49.146;10.616;2022-08-23T07:13:25;96475.34;;;18.80;66.11
64228;BME280;50546;49.146;10.616;2022-08-23T07:15:50;96475.16;;;18.92;64.71
64228;BME280;50546;49.146;10.616;2022-08-23T07:18:15;96475.59;;;19.21;64.97
64228;BME280;50546;49.146;10.616;2022-08-23T07:20:41;96479.69;;;19.34;63.16
64228;BME280;50546;49.146;10.616;2022-08-23T07:23:06;96479.63;;;19.57;63.45
64228;BME280;50546;49.146;10.616;2022-08-23T07:25:31;96470.56;;;19.80;61.83
64228;BME280;50546;49.146;10.616;2022-08-23T07:27:57;96482.78;;;19.89;62.22
64228;BME280;50546;49.146;10.616;2022-08-23T07:30:23;96485.75;;;20.11;61.84
64228;BME280;50546;49.146;10.616;2022-08-23T07:32:48;96486.97;;;20.13;61.52
64228;BME280;50546;49.146;10.616;2022-08-23T07:35:13;96489.97;;;20.38;60.93
64228;BME280;50546;49.146;10.616;2022-08-23T07:37:39;96487.69;;;20.44;60.49
64228;BME280;50546;49.146;10.616;2022-08-23T07:40:04;96492.28;;;20.70;61.12
64228;BME280;50546;49.146;10.616;2022-08-23T07:42:32;96486.22;;;20.95;59.56
64228;BME280;50546;49.146;10.616;2022-08-23T07:44:57;96487.88;;;21.03;59.31
64228;BME280;50546;49.146;10.616;2022-08-23T07:47:23;96483.88;;;21.45;58.57
64228;BME280;50546;49.146;10.616;2022-08-23T07:49:48;96482.88;;;21.81;56.78
64228;BME280;50546;49.146;10.616;2022-08-23T07:52:13;96482.91;;;21.88;54.94
64228;BME280;50546;49.146;10.616;2022-08-23T07:54:39;96476.03;;;22.23;55.24
64228;BME280;50546;49.146;10.616;2022-08-23T07:57:04;96488.78;;;21.83;56.04
64228;BME280;50546;49.146;10.616;2022-08-23T07:59:30;96486.88;;;21.98;55.54
64228;BME280;50546;49.146;10.616;2022-08-23T08:01:55;96490.94;;;22.29;54.93
64228;BME280;50546;49.146;10.616;2022-08-23T08:04:20;96493.19;;;22.06;54.31
64228;BME280;50546;49.146;10.616;2022-08-23T08:06:47;96493.69;;;22.37;54.67
64228;BME280;50546;49.146;10.616;2022-08-23T08:09:14;96487.06;;;22.38;51.24
64228;BME280;50546;49.146;10.616;2022-08-23T08:11:43;96498.44;;;22.57;48.31
64228;BME280;50546;49.146;10.616;2022-08-23T08:14:10;96490.22;;;22.54;49.04
64228;BME280;50546;49.146;10.616;2022-08-23T08:16:38;96492.59;;;22.63;49.29
64228;BME280;50546;49.146;10.616;2022-08-23T08:19:06;96490.19;;;22.47;49.73
64228;BME280;50546;49.146;10.616;2022-08-23T08:21:32;96493.41;;;22.81;48.01
64228;BME280;50546;49.146;10.616;2022-08-23T08:23:59;96494.22;;;23.10;48.16
64228;BME280;50546;49.146;10.616;2022-08-23T08:26:25;96493.41;;;23.31;46.62
64228;BME280;50546;49.146;10.616;2022-08-23T08:28:52;96500.06;;;23.41;46.81
64228;BME280;50546;49.146;10.616;2022-08-23T08:31:20;96489.44;;;23.78;45.95
64228;BME280;50546;49.146;10.616;2022-08-23T08:33:45;96492.09;;;24.00;44.46
64228;BME280;50546;49.146;10.616;2022-08-23T08:38:52;96494.38;;;24.19;43.70
64228;BME280;50546;49.146;10.616;2022-08-23T08:41:24;96499.44;;;24.28;43.53
64228;BME280;50546;49.146;10.616;2022-08-23T08:46:48;96497.84;;;24.41;42.88
64228;BME280;50546;49.146;10.616;2022-08-23T08:49:39;96492.31;;;24.41;42.20
64228;BME280;50546;49.146;10.616;2022-08-23T08:52:16;96488.72;;;24.52;42.99
64228;BME280;50546;49.146;10.616;2022-08-23T08:54:45;96496.81;;;24.80;43.18
64228;BME280;50546;49.146;10.616;2022-08-23T08:57:13;96499.09;;;24.89;41.81
64228;BME280;50546;49.146;10.616;2022-08-23T09:00:04;96494.97;;;24.59;42.09
64228;BME280;50546;49.146;10.616;2022-08-23T09:02:31;96505.38;;;24.19;41.61
64228;BME280;50546;49.146;10.616;2022-08-23T09:05:01;96500.97;;;24.33;42.37
64228;BME280;50546;49.146;10.616;2022-08-23T09:07:43;96499.28;;;24.60;43.99
64228;BME280;50546;49.146;10.616;2022-08-23T09:18:52;96507.59;;;24.53;41.97
64228;BME280;50546;49.146;10.616;2022-08-23T09:21:21;96506.59;;;24.88;43.30
64228;BME280;50546;49.146;10.616;2022-08-23T09:23:48;96501.72;;;25.10;42.06
64228;BME280;50546;49.146;10.616;2022-08-23T09:26:21;96505.44;;;24.82;41.60
64228;BME280;50546;49.146;10.616;2022-08-23T09:28:50;96505.25;;;25.11;42.72
64228;BME280;50546;49.146;10.616;2022-08-23T09:31:44;96497.56;;;25.74;41.76
64228;BME280;50546;49.146;10.616;2022-08-23T09:34:18;96507.38;;;26.16;40.58
64228;BME280;50546;49.146;10.616;2022-08-23T09:36:44;96502.13;;;26.56;39.35
64228;BME280;50546;49.146;10.616;2022-08-23T09:39:25;96499.56;;;26.73;39.41
64228;BME280;50546;49.146;10.616;2022-08-23T09:41:51;96502.56;;;26.21;38.90
64228;BME280;50546;49.146;10.616;2022-08-23T09:44:32;96503.19;;;26.35;40.00
64228;BME280;50546;49.146;10.616;2022-08-23T09:47:09;96502.72;;;26.40;39.59
64228;BME280;50546;49.146;10.616;2022-08-23T09:49:36;96509.31;;;26.20;38.98
64228;BME280;50546;49.146;10.616;2022-08-23T09:52:31;96507.16;;;26.34;39.01
64228;BME280;50546;49.146;10.616;2022-08-23T09:55:05;96507.00;;;26.49;38.20
64228;BME280;50546;49.146;10.616;2022-08-23T09:57:33;96497.94;;;26.45;37.54
64228;BME280;50546;49.146;10.616;2022-08-23T10:02:42;96494.34;;;25.83;39.46
64228;BME280;50546;49.146;10.616;2022-08-23T10:07:52;96488.78;;;25.86;40.69
64228;BME280;50546;49.146;10.616;2022-08-23T10:12:43;96493.34;;;26.04;39.63
64228;BME280;50546;49.146;10.616;2022-08-23T10:15:09;96490.91;;;26.40;38.28
64228;BME280;50546;49.146;10.616;2022-08-23T10:17:40;96491.72;;;26.68;38.37
64228;BME280;50546;49.146;10.616;2022-08-23T10:25:39;96489.63;;;27.02;37.67
64228;BME280;50546;49.146;10.616;2022-08-23T10:31:12;96478.44;;;27.09;38.76
64228;BME280;50546;49.146;10.616;2022-08-23T10:36:17;96476.56;;;26.76;36.77
64228;BME280;50546;49.146;10.616;2022-08-23T10:38:56;96479.09;;;26.05;38.76
64228;BME280;50546;49.146;10.616;2022-08-23T10:46:42;96465.06;;;27.04;38.41
64228;BME280;50546;49.146;10.616;2022-08-23T10:49:11;96459.53;;;27.04;37.06
64228;BME280;50546;49.146;10.616;2022-08-23T10:51:41;96464.56;;;26.86;37.26
64228;BME280;50546;49.146;10.616;2022-08-23T10:54:19;96470.56;;;26.54;37.18
64228;BME280;50546;49.146;10.616;2022-08-23T10:56:58;96462.22;;;27.11;38.35
64228;BME280;50546;49.146;10.616;2022-08-23T10:59:25;96467.63;;;27.42;37.17
64228;BME280;50546;49.146;10.616;2022-08-23T11:04:55;96468.41;;;27.86;36.24
64228;BME280;50546;49.146;10.616;2022-08-23T11:07:30;96461.59;;;28.11;35.46
64228;BME280;50546;49.146;10.616;2022-08-23T11:12:31;96457.00;;;28.40;34.32
64228;BME280;50546;49.146;10.616;2022-08-23T11:15:04;96456.31;;;28.16;34.19
64228;BME280;50546;49.146;10.616;2022-08-23T11:17:57;96456.88;;;28.07;35.88
64228;BME280;50546;49.146;10.616;2022-08-23T11:21:04;96451.22;;;28.51;35.68
64228;BME280;50546;49.146;10.616;2022-08-23T11:23:47;96450.53;;;28.27;35.18
64228;BME280;50546;49.146;10.616;2022-08-23T11:28:51;96444.97;;;28.11;34.68
64228;BME280;50546;49.146;10.616;2022-08-23T11:31:31;96455.59;;;27.92;35.79
64228;BME280;50546;49.146;10.616;2022-08-23T11:34:02;96451.13;;;28.18;35.38
64228;BME280;50546;49.146;10.616;2022-08-23T11:36:30;96456.50;;;28.25;35.89
64228;BME280;50546;49.146;10.616;2022-08-23T11:41:22;96442.06;;;27.78;34.63
64228;BME280;50546;49.146;10.616;2022-08-23T11:43:49;96442.50;;;27.73;33.18
64228;BME280;50546;49.146;10.616;2022-08-23T12:00:52;96449.81;;;27.63;33.50
64228;BME280;50546;49.146;10.616;2022-08-23T12:03:33;96449.97;;;27.96;32.80
64228;BME280;50546;49.146;10.616;2022-08-23T12:11:12;96440.41;;;28.00;32.37
64228;BME280;50546;49.146;10.616;2022-08-23T12:18:52;96436.66;;;28.27;33.36
64228;BME280;50546;49.146;10.616;2022-08-23T12:21:20;96425.25;;;28.77;32.68
64228;BME280;50546;49.146;10.616;2022-08-23T12:23:49;96435.41;;;29.00;30.71
64228;BME280;50546;49.146;10.616;2022-08-23T12:26:25;96434.91;;;29.06;31.57
64228;BME280;50546;49.146;10.616;2022-08-23T12:29:10;96434.34;;;29.27;30.54
64228;BME280;50546;49.146;10.616;2022-08-23T12:34:45;96421.69;;;28.93;30.41
64228;BME280;50546;49.146;10.616;2022-08-23T12:39:57;96425.66;;;28.23;31.48
64228;BME280;50546;49.146;10.616;2022-08-23T12:42:29;96420.44;;;27.69;32.03
64228;BME280;50546;49.146;10.616;2022-08-23T12:47:28;96425.47;;;27.34;33.73
64228;BME280;50546;49.146;10.616;2022-08-23T12:50:23;96430.16;;;27.57;32.42
64228;BME280;50546;49.146;10.616;2022-08-23T12:53:06;96427.25;;;27.84;32.60
64228;BME280;50546;49.146;10.616;2022-08-23T12:55:37;96423.72;;;27.84;32.69
64228;BME280;50546;49.146;10.616;2022-08-23T12:58:04;96423.09;;;27.96;31.77
64228;BME280;50546;49.146;10.616;2022-08-23T13:00:33;96421.97;;;28.30;31.84
64228;BME280;50546;49.146;10.616;2022-08-23T13:03:17;96420.19;;;28.40;30.65
64228;BME280;50546;49.146;10.616;2022-08-23T13:05:47;96415.34;;;28.93;31.33
64228;BME280;50546;49.146;10.616;2022-08-23T13:08:32;96417.16;;;29.16;30.33
64228;BME280;50546;49.146;10.616;2022-08-23T13:10:58;96415.66;;;29.44;29.90
64228;BME280;50546;49.146;10.616;2022-08-23T13:13:25;96409.31;;;29.60;29.08
64228;BME280;50546;49.146;10.616;2022-08-23T13:15:53;96411.91;;;29.50;29.96
64228;BME280;50546;49.146;10.616;2022-08-23T13:21:28;96410.44;;;29.46;28.69
64228;BME280;50546;49.146;10.616;2022-08-23T13:23:58;96415.75;;;29.40;29.48
64228;BME280;50546;49.146;10.616;2022-08-23T13:34:52;96408.16;;;29.28;29.14
64228;BME280;50546;49.146;10.616;2022-08-23T13:37:25;96402.84;;;30.05;28.32
64228;BME280;50546;49.146;10.616;2022-08-23T13:39:58;96404.69;;;30.24;27.89
64228;BME280;50546;49.146;10.616;2022-08-23T13:42:31;96405.13;;;30.61;27.47
64228;BME280;50546;49.146;10.616;2022-08-23T13:45:06;96399.75;;;31.96;25.85
64228;BME280;50546;49.146;10.616;2022-08-23T13:47:32;96387.03;;;33.07;24.52
64228;BME280;50546;49.146;10.616;2022-08-23T13:49:58;96389.22;;;33.21;23.68
64228;BME280;50546;49.146;10.616;2022-08-23T13:52:24;96394.16;;;34.85;21.66
64228;BME280;50546;49.146;10.616;2022-08-23T13:54:49;96386.63;;;35.00;21.19
64228;BME280;50546;49.146;10.616;2022-08-23T13:57:16;96382.81;;;36.20;20.70
64228;BME280;50546;49.146;10.616;2022-08-23T14:02:14;96388.81;;;37.53;19.61
64228;BME280;50546;49.146;10.616;2022-08-23T14:04:41;96376.81;;;37.79;18.28
64228;BME280;50546;49.146;10.616;2022-08-23T14:07:06;96382.16;;;38.29;18.09
64228;BME280;50546;49.146;10.616;2022-08-23T14:09:32;96372.25;;;39.19;17.51
64228;BME280;50546;49.146;10.616;2022-08-23T14:12:02;96384.03;;;38.38;18.20
64228;BME280;50546;49.146;10.616;2022-08-23T14:14:30;96378.03;;;39.47;17.29
64228;BME280;50546;49.146;10.616;2022-08-23T14:16:57;96373.53;;;40.01;16.90
64228;BME280;50546;49.146;10.616;2022-08-23T14:19:22;96383.97;;;39.01;18.37
64228;BME280;50546;49.146;10.616;2022-08-23T14:21:48;96376.97;;;38.22;18.28
64228;BME280;50546;49.146;10.616;2022-08-23T14:24:13;96378.06;;;35.66;20.22
64228;BME280;50546;49.146;10.616;2022-08-23T14:26:38;96377.56;;;34.39;21.83
64228;BME280;50546;49.146;10.616;2022-08-23T14:29:04;96383.22;;;34.20;22.10
64228;BME280;50546;49.146;10.616;2022-08-23T14:31:29;96384.00;;;35.20;20.57
64228;BME280;50546;49.146;10.616;2022-08-23T14:33:55;96375.16;;;36.50;19.82
64228;BME280;50546;49.146;10.616;2022-08-23T14:36:20;96376.25;;;36.73;19.23
64228;BME280;50546;49.146;10.616;2022-08-23T14:38:46;96375.41;;;38.47;18.08
64228;BME280;50546;49.146;10.616;2022-08-23T14:41:16;96369.09;;;36.92;18.95
64228;BME280;50546;49.146;10.616;2022-08-23T14:43:43;96378.63;;;36.59;19.40